createdAt,value
2017-12-24T00:02:00.336Z,2.42
2017-12-24T00:04:27.873Z,2.00
2017-12-24T00:06:56.181Z,2.25
2017-12-24T00:09:23.729Z,4.05
2017-12-24T00:11:51.245Z,2.00
2017-12-24T00:14:18.787Z,2.58
2017-12-24T00:16:46.333Z,1.85
2017-12-24T00:19:13.889Z,1.60
2017-12-24T00:21:41.434Z,1.42
2017-12-24T00:24:08.981Z,1.73
2017-12-24T00:26:36.503Z,2.20
2017-12-24T00:29:04.063Z,1.73
2017-12-24T00:31:31.594Z,1.30
2017-12-24T00:33:59.145Z,1.35
2017-12-24T00:36:26.687Z,1.45
2017-12-24T00:38:54.232Z,1.33
2017-12-24T00:41:21.772Z,1.30
2017-12-24T00:43:50.067Z,1.40
2017-12-24T00:46:17.608Z,1.67
2017-12-24T00:48:45.901Z,1.90
2017-12-24T00:51:13.445Z,1.85
2017-12-24T00:53:41.760Z,1.90
2017-12-24T00:56:09.303Z,1.90
2017-12-24T00:58:36.830Z,1.92
2017-12-24T01:01:04.365Z,1.27
2017-12-24T01:03:31.910Z,2.08
2017-12-24T01:06:00.240Z,1.58
2017-12-24T01:08:27.764Z,1.40
2017-12-24T01:10:55.305Z,1.65
2017-12-24T01:13:22.865Z,1.85
2017-12-24T01:15:50.416Z,1.95
2017-12-24T01:18:17.939Z,1.70
2017-12-24T01:20:45.485Z,1.33
2017-12-24T01:23:13.782Z,1.50
2017-12-24T01:25:41.345Z,1.10
2017-12-24T01:28:08.889Z,1.92
2017-12-24T01:30:37.178Z,1.50
2017-12-24T01:33:04.736Z,2.20
2017-12-24T01:35:32.271Z,1.90
2017-12-24T01:37:59.792Z,2.40
2017-12-24T01:40:27.349Z,1.85
2017-12-24T01:42:54.900Z,2.85
2017-12-24T01:45:22.435Z,1.70
2017-12-24T01:47:51.801Z,1.58
2017-12-24T01:50:20.093Z,1.30
2017-12-24T01:52:47.656Z,1.55
2017-12-24T01:55:15.182Z,1.58
2017-12-24T01:57:42.737Z,1.27
2017-12-24T02:00:10.253Z,1.30
2017-12-24T02:02:37.788Z,1.10
2017-12-24T02:05:05.312Z,1.40
2017-12-24T02:07:32.847Z,1.62
2017-12-24T02:10:00.383Z,1.70
2017-12-24T02:12:27.909Z,1.20
2017-12-24T02:14:55.461Z,1.70
2017-12-24T02:17:22.977Z,1.20
2017-12-24T02:19:51.309Z,1.30
2017-12-24T02:22:18.821Z,1.20
2017-12-24T02:24:47.141Z,1.33
2017-12-24T02:27:14.664Z,1.42
2017-12-24T02:29:42.978Z,1.10
2017-12-24T02:32:10.493Z,1.50
2017-12-24T02:34:38.037Z,1.52
2017-12-24T02:37:05.561Z,1.55
2017-12-24T02:39:33.115Z,1.42
2017-12-24T02:42:00.645Z,1.60
2017-12-24T02:44:28.184Z,1.37
2017-12-24T02:46:55.705Z,1.60
2017-12-24T02:49:24.019Z,2.03
2017-12-24T02:51:51.549Z,2.53
2017-12-24T02:54:19.865Z,1.90
2017-12-24T02:56:47.380Z,1.58
2017-12-24T02:59:15.689Z,1.55
2017-12-24T03:01:43.209Z,1.45
2017-12-24T03:04:10.767Z,1.70
2017-12-24T03:06:38.288Z,1.30
2017-12-24T03:09:06.601Z,1.40
2017-12-24T03:11:34.142Z,1.33
2017-12-24T03:14:01.669Z,1.50
2017-12-24T03:16:29.225Z,1.30
2017-12-24T03:18:56.757Z,1.40
2017-12-24T03:21:24.309Z,1.50
2017-12-24T03:23:51.855Z,1.30
2017-12-24T03:26:19.415Z,1.52
2017-12-24T03:28:46.947Z,1.40
2017-12-24T03:31:14.538Z,1.00
2017-12-24T03:33:42.052Z,1.40
2017-12-24T03:36:09.627Z,1.20
2017-12-24T03:38:37.146Z,1.12
2017-12-24T03:41:05.463Z,1.60
2017-12-24T03:43:33.037Z,1.23
2017-12-24T03:46:00.568Z,1.40
2017-12-24T03:48:28.113Z,1.20
2017-12-24T03:50:55.634Z,1.37
2017-12-24T03:53:23.176Z,1.10
2017-12-24T03:55:50.696Z,1.62
2017-12-24T03:58:18.244Z,1.55
2017-12-24T04:00:45.784Z,1.25
2017-12-24T04:03:13.354Z,1.17
2017-12-24T04:05:40.897Z,1.40
2017-12-24T04:08:09.188Z,1.45
2017-12-24T04:10:37.494Z,1.42
2017-12-24T04:13:05.024Z,1.30
2017-12-24T04:15:33.336Z,1.30
2017-12-24T04:18:00.861Z,1.08
2017-12-24T04:20:28.413Z,1.50
2017-12-24T04:22:56.707Z,1.02
2017-12-24T04:25:24.264Z,1.02
2017-12-24T04:27:52.548Z,1.30
2017-12-24T04:30:20.093Z,1.10
2017-12-24T04:32:48.384Z,1.00
2017-12-24T04:35:15.954Z,1.05
2017-12-24T04:37:43.486Z,1.08
2017-12-24T04:40:11.052Z,1.10
2017-12-24T04:42:38.575Z,0.98
2017-12-24T04:45:06.116Z,1.17
2017-12-24T04:47:33.643Z,1.62
2017-12-24T04:50:01.189Z,2.10
2017-12-24T04:52:28.720Z,0.90
2017-12-24T04:54:56.255Z,1.20
2017-12-24T04:57:23.781Z,1.35
2017-12-24T04:59:51.333Z,0.90
2017-12-24T05:02:18.860Z,1.23
2017-12-24T05:04:46.408Z,0.82
2017-12-24T05:07:13.928Z,0.90
2017-12-24T05:09:41.505Z,1.20
2017-12-24T05:12:09.030Z,0.80
2017-12-24T05:14:36.565Z,2.05
2017-12-24T05:17:04.884Z,0.70
2017-12-24T05:19:32.401Z,1.05
2017-12-24T05:22:00.716Z,0.88
2017-12-24T05:24:28.243Z,1.00
2017-12-24T05:26:56.544Z,1.10
2017-12-24T05:29:24.074Z,0.90
2017-12-24T05:31:52.384Z,0.85
2017-12-24T05:34:19.924Z,0.90
2017-12-24T05:36:48.257Z,1.00
2017-12-24T05:39:15.781Z,1.12
2017-12-24T05:41:43.376Z,0.98
2017-12-24T05:44:10.927Z,0.85
2017-12-24T05:46:38.456Z,1.12
2017-12-24T05:49:06.016Z,0.82
2017-12-24T05:51:33.544Z,1.00
2017-12-24T05:54:01.091Z,1.10
2017-12-24T05:56:28.616Z,0.70
2017-12-24T05:58:56.160Z,0.90
2017-12-24T06:01:23.677Z,0.90
2017-12-24T06:03:51.224Z,0.90
2017-12-24T06:06:19.529Z,1.40
2017-12-24T06:08:47.078Z,0.95
2017-12-24T06:11:15.388Z,0.80
2017-12-24T06:13:42.915Z,1.00
2017-12-24T06:16:11.225Z,3.70
2017-12-24T06:18:38.753Z,0.60
2017-12-24T06:21:06.297Z,0.93
2017-12-24T06:23:33.829Z,1.02
2017-12-24T06:26:02.159Z,2.15
2017-12-24T06:28:29.697Z,1.12
2017-12-24T06:30:57.243Z,0.90
2017-12-24T06:33:24.776Z,0.75
2017-12-24T06:35:52.344Z,0.90
2017-12-24T06:38:20.644Z,0.90
2017-12-24T06:40:48.192Z,0.75
2017-12-24T06:43:15.732Z,0.95
2017-12-24T06:45:43.288Z,0.70
2017-12-24T06:48:10.799Z,0.70
2017-12-24T06:50:38.335Z,0.80
2017-12-24T06:53:05.880Z,0.68
2017-12-24T06:55:33.406Z,0.77
2017-12-24T06:58:00.952Z,0.88
2017-12-24T07:00:28.509Z,0.80
2017-12-24T07:02:56.832Z,0.98
2017-12-24T07:05:24.356Z,1.92
2017-12-24T07:07:52.678Z,1.00
2017-12-24T07:10:20.218Z,1.02
2017-12-24T07:12:47.766Z,0.98
2017-12-24T07:15:15.315Z,1.10
2017-12-24T07:17:43.619Z,0.90
2017-12-24T07:20:11.136Z,1.05
2017-12-24T07:22:38.671Z,1.10
2017-12-24T07:25:06.204Z,2.08
2017-12-24T07:27:34.545Z,1.37
2017-12-24T07:30:02.093Z,1.12
2017-12-24T07:32:29.613Z,1.10
2017-12-24T07:34:57.162Z,1.00
2017-12-24T07:37:25.449Z,2.05
2017-12-24T07:39:53.769Z,1.12
2017-12-24T07:42:21.301Z,1.10
2017-12-24T07:44:48.852Z,1.02
2017-12-24T07:47:16.381Z,1.15
2017-12-24T07:49:43.919Z,0.80
2017-12-24T07:52:11.449Z,1.00
2017-12-24T07:54:39.012Z,0.70
2017-12-24T07:57:06.572Z,0.70
2017-12-24T07:59:34.136Z,0.90
2017-12-24T08:02:01.695Z,0.90
2017-12-24T08:04:29.214Z,0.85
2017-12-24T08:06:57.529Z,1.10
2017-12-24T08:09:25.064Z,1.10
2017-12-24T08:11:52.611Z,1.00
2017-12-24T08:14:20.915Z,0.80
2017-12-24T08:16:48.457Z,0.82
2017-12-24T08:19:16.756Z,0.95
2017-12-24T08:21:45.109Z,1.20
2017-12-24T08:24:13.474Z,1.20
2017-12-24T08:26:41.806Z,1.33
2017-12-24T08:29:09.338Z,1.20
2017-12-24T08:31:36.906Z,1.50
2017-12-24T08:34:04.442Z,1.20
2017-12-24T08:36:32.133Z,1.17
2017-12-24T08:38:59.684Z,0.90
2017-12-24T08:41:27.236Z,1.15
2017-12-24T08:43:54.773Z,1.52
2017-12-24T08:46:23.104Z,1.25
2017-12-24T08:48:50.632Z,1.20
2017-12-24T08:51:18.162Z,1.30
2017-12-24T08:53:46.488Z,1.15
2017-12-24T08:56:14.026Z,1.20
2017-12-24T08:58:41.640Z,1.00
2017-12-24T09:01:09.165Z,1.10
2017-12-24T09:03:36.727Z,1.20
2017-12-24T09:06:04.246Z,1.37
2017-12-24T09:08:32.559Z,1.10
2017-12-24T09:11:00.081Z,1.10
2017-12-24T09:13:28.432Z,0.90
2017-12-24T09:15:55.969Z,1.08
2017-12-24T09:18:23.504Z,0.90
2017-12-24T09:20:51.061Z,1.15
2017-12-24T09:23:18.580Z,1.17
2017-12-24T09:25:46.194Z,1.05
2017-12-24T09:28:14.460Z,1.25
2017-12-24T09:30:42.009Z,1.00
2017-12-24T09:33:09.560Z,0.95
2017-12-24T09:35:37.884Z,0.90
2017-12-24T09:38:05.608Z,1.92
2017-12-24T09:40:33.189Z,1.20
2017-12-24T09:43:00.740Z,1.00
2017-12-24T09:45:28.284Z,1.17
2017-12-24T09:47:56.593Z,0.93
2017-12-24T09:50:24.137Z,1.10
2017-12-24T09:52:51.695Z,1.15
2017-12-24T09:55:19.249Z,1.33
2017-12-24T09:57:46.806Z,1.48
2017-12-24T10:00:14.332Z,1.15
2017-12-24T10:02:41.902Z,1.73
2017-12-24T10:05:10.205Z,1.00
2017-12-24T10:07:37.773Z,1.20
2017-12-24T10:10:05.349Z,1.60
2017-12-24T10:12:32.892Z,1.05
2017-12-24T10:15:00.445Z,1.17
2017-12-24T10:17:27.998Z,1.30
2017-12-24T10:19:55.548Z,0.90
2017-12-24T10:22:23.855Z,0.95
2017-12-24T10:24:51.400Z,1.23
2017-12-24T10:27:18.938Z,1.12
2017-12-24T10:29:47.260Z,2.47
2017-12-24T10:32:14.797Z,0.90
2017-12-24T10:34:42.357Z,1.12
2017-12-24T10:37:09.891Z,0.80
2017-12-24T10:39:38.213Z,1.30
2017-12-24T10:42:05.787Z,0.80
2017-12-24T10:44:33.329Z,1.00
2017-12-24T10:47:00.894Z,0.90
2017-12-24T10:49:28.445Z,1.10
2017-12-24T10:51:55.998Z,0.80
2017-12-24T10:54:23.521Z,0.93
2017-12-24T10:56:51.846Z,1.15
2017-12-24T10:59:19.378Z,0.80
2017-12-24T11:01:46.926Z,1.10
2017-12-24T11:04:15.216Z,0.90
2017-12-24T11:06:42.818Z,1.20
2017-12-24T11:09:10.345Z,0.80
2017-12-24T11:11:37.894Z,0.85
2017-12-24T11:14:05.433Z,1.12
2017-12-24T11:16:33.749Z,0.70
2017-12-24T11:19:01.276Z,0.95
2017-12-24T11:21:29.594Z,1.35
2017-12-24T11:23:57.138Z,0.82
2017-12-24T11:26:24.656Z,0.75
2017-12-24T11:28:52.981Z,0.80
2017-12-24T11:31:20.501Z,0.80
2017-12-24T11:33:48.811Z,0.70
2017-12-24T11:36:16.341Z,1.00
2017-12-24T11:38:44.655Z,0.80
2017-12-24T11:41:12.200Z,1.10
2017-12-24T11:43:39.742Z,0.70
2017-12-24T11:46:08.087Z,1.45
2017-12-24T11:48:35.617Z,0.80
2017-12-24T11:51:03.193Z,0.80
2017-12-24T11:53:30.741Z,0.68
2017-12-24T11:55:58.323Z,1.00
2017-12-24T11:58:25.836Z,1.42
2017-12-24T12:00:53.389Z,1.98
2017-12-24T12:03:21.791Z,1.17
2017-12-24T12:05:49.436Z,0.93
2017-12-24T12:08:16.966Z,1.33
2017-12-24T12:10:44.517Z,2.78
2017-12-24T12:13:12.040Z,2.33
2017-12-24T12:15:39.569Z,1.23
2017-12-24T12:18:07.108Z,1.48
2017-12-24T12:20:35.417Z,1.73
2017-12-24T12:23:02.959Z,1.65
2017-12-24T12:25:30.497Z,1.30
2017-12-24T12:27:58.067Z,1.70
2017-12-24T12:30:26.354Z,1.20
2017-12-24T12:32:54.677Z,1.42
2017-12-24T12:35:22.203Z,1.10
2017-12-24T12:37:49.745Z,1.23
2017-12-24T12:40:18.061Z,1.15
2017-12-24T12:42:45.584Z,1.05
2017-12-24T12:45:13.892Z,1.25
2017-12-24T12:47:41.421Z,1.00
2017-12-24T12:50:09.816Z,1.00
2017-12-24T12:52:37.337Z,1.20
2017-12-24T12:55:04.971Z,0.90
2017-12-24T12:57:32.513Z,2.37
2017-12-24T13:00:00.105Z,1.10
2017-12-24T13:02:27.646Z,0.93
2017-12-24T13:04:55.184Z,1.55
2017-12-24T13:07:22.709Z,1.40
2017-12-24T13:09:51.051Z,1.40
2017-12-24T13:12:18.590Z,1.30
2017-12-24T13:14:46.250Z,1.08
2017-12-24T13:17:14.013Z,0.80
2017-12-24T13:19:41.622Z,0.80
2017-12-24T13:22:09.165Z,1.02
2017-12-24T13:24:36.730Z,0.82
2017-12-24T13:27:04.356Z,1.05
2017-12-24T13:29:31.910Z,1.02
2017-12-24T13:31:59.449Z,1.17
2017-12-24T13:34:27.774Z,1.08
2017-12-24T13:36:55.328Z,0.90
2017-12-24T13:39:22.862Z,1.10
2017-12-24T13:41:50.434Z,0.90
2017-12-24T13:44:17.978Z,1.00
2017-12-24T13:46:45.528Z,1.10
2017-12-24T13:49:13.067Z,0.93
2017-12-24T13:51:41.404Z,1.45
2017-12-24T13:54:09.050Z,0.80
2017-12-24T13:56:36.596Z,1.98
2017-12-24T13:59:04.153Z,1.45
2017-12-24T14:01:31.689Z,1.48
2017-12-24T14:04:00.003Z,1.83
2017-12-24T14:06:27.540Z,1.40
2017-12-24T14:08:55.099Z,0.95
2017-12-24T14:11:22.648Z,2.22
2017-12-24T14:13:50.964Z,1.60
2017-12-24T14:16:18.508Z,1.70
2017-12-24T14:18:46.044Z,1.52
2017-12-24T14:21:14.332Z,0.93
2017-12-24T14:23:41.880Z,0.98
2017-12-24T14:26:10.164Z,1.73
2017-12-24T14:28:38.449Z,1.00
2017-12-24T14:31:05.993Z,3.05
2017-12-24T14:33:34.385Z,1.10
2017-12-24T14:36:01.962Z,1.33
2017-12-24T14:38:29.491Z,0.95
2017-12-24T14:40:57.826Z,1.23
2017-12-24T14:43:25.369Z,1.17
2017-12-24T14:45:52.922Z,2.05
2017-12-24T14:48:20.461Z,1.25
2017-12-24T14:50:48.764Z,2.78
2017-12-24T14:53:16.305Z,2.25
2017-12-24T14:55:43.872Z,1.20
2017-12-24T14:58:11.434Z,1.30
2017-12-24T15:00:38.980Z,2.53
2017-12-24T15:03:06.545Z,2.53
2017-12-24T15:05:34.065Z,1.20
2017-12-24T15:08:01.612Z,1.42
2017-12-24T15:10:29.165Z,1.30
2017-12-24T15:12:56.725Z,1.85
2017-12-24T15:15:24.293Z,1.50
2017-12-24T15:17:51.839Z,1.10
2017-12-24T15:20:19.379Z,1.30
2017-12-24T15:22:46.901Z,1.00
2017-12-24T15:25:15.217Z,1.73
2017-12-24T15:27:42.753Z,1.87
2017-12-24T15:30:11.084Z,1.30
2017-12-24T15:32:38.611Z,1.30
2017-12-24T15:35:06.140Z,1.95
2017-12-24T15:37:34.446Z,1.40
2017-12-24T15:40:02.024Z,1.80
2017-12-24T15:42:29.547Z,3.17
2017-12-24T15:44:57.094Z,2.97
2017-12-24T15:47:25.430Z,3.00
2017-12-24T15:49:52.970Z,2.20
2017-12-24T15:52:20.523Z,3.37
2017-12-24T15:54:48.055Z,2.75
2017-12-24T15:57:16.373Z,1.85
2017-12-24T15:59:43.922Z,2.55
2017-12-24T16:02:11.470Z,1.45
2017-12-24T16:04:39.001Z,2.12
2017-12-24T16:07:07.450Z,2.53
2017-12-24T16:09:34.975Z,5.75
2017-12-24T16:12:02.541Z,9.07
2017-12-24T16:14:30.073Z,3.50
2017-12-24T16:16:57.624Z,3.65
2017-12-24T16:19:25.930Z,3.25
2017-12-24T16:21:53.484Z,3.70
2017-12-24T16:24:21.036Z,1.40
2017-12-24T16:26:48.564Z,1.55
2017-12-24T16:29:16.113Z,4.15
2017-12-24T16:31:43.648Z,1.80
2017-12-24T16:34:11.196Z,1.90
2017-12-24T16:36:38.720Z,2.05
2017-12-24T16:39:07.044Z,2.12
2017-12-24T16:41:34.568Z,2.60
2017-12-24T16:44:02.116Z,2.22
2017-12-24T16:46:29.656Z,3.25
2017-12-24T16:48:57.984Z,3.10
2017-12-24T16:51:25.510Z,1.85
2017-12-24T16:53:53.074Z,2.58
2017-12-24T16:56:20.630Z,2.58
2017-12-24T16:58:48.264Z,2.65
2017-12-24T17:01:15.815Z,3.20
2017-12-24T17:03:43.344Z,3.50
2017-12-24T17:06:11.664Z,3.00
2017-12-24T17:08:39.224Z,3.75
2017-12-24T17:11:07.520Z,4.97
2017-12-24T17:13:35.178Z,3.83
2017-12-24T17:16:02.761Z,3.42
2017-12-24T17:18:30.310Z,2.70
2017-12-24T17:20:57.860Z,2.47
2017-12-24T17:23:25.416Z,2.12
2017-12-24T17:25:52.937Z,2.60
2017-12-24T17:28:20.483Z,3.53
2017-12-24T17:30:48.795Z,3.90
2017-12-24T17:33:16.370Z,2.90
2017-12-24T17:35:43.900Z,2.97
2017-12-24T17:38:11.441Z,3.87
2017-12-24T17:40:39.736Z,3.80
2017-12-24T17:43:07.281Z,3.87
2017-12-24T17:45:35.589Z,6.10
2017-12-24T17:48:03.145Z,3.55
2017-12-24T17:50:30.693Z,2.65
2017-12-24T17:52:58.212Z,3.60
2017-12-24T17:55:25.772Z,3.37
2017-12-24T17:57:53.304Z,3.72
2017-12-24T18:00:20.869Z,3.08
2017-12-24T18:02:48.390Z,2.85
2017-12-24T18:05:15.925Z,3.20
2017-12-24T18:07:44.238Z,3.62
2017-12-24T18:10:11.799Z,3.17
2017-12-24T18:12:39.346Z,3.97
2017-12-24T18:15:06.896Z,2.80
2017-12-24T18:17:34.433Z,3.65
2017-12-24T18:20:02.749Z,2.50
2017-12-24T18:22:30.268Z,3.37
2017-12-24T18:24:58.754Z,5.57
2017-12-24T18:27:27.044Z,4.55
2017-12-24T18:29:54.636Z,3.78
2017-12-24T18:32:22.163Z,3.35
2017-12-24T18:34:50.477Z,8.35
2017-12-24T18:37:18.044Z,5.18
2017-12-24T18:39:46.356Z,4.43
2017-12-24T18:42:13.911Z,4.68
2017-12-24T18:44:41.456Z,3.53
2017-12-24T18:47:09.001Z,2.78
2017-12-24T18:49:36.525Z,4.75
2017-12-24T18:52:04.849Z,2.92
2017-12-24T18:54:32.365Z,5.07
2017-12-24T18:56:59.917Z,2.60
2017-12-24T18:59:27.445Z,2.80
2017-12-24T19:01:54.987Z,3.92
2017-12-24T19:04:22.507Z,4.43
2017-12-24T19:06:50.057Z,3.92
2017-12-24T19:09:18.385Z,4.87
2017-12-24T19:11:45.910Z,3.85
2017-12-24T19:14:14.217Z,5.18
2017-12-24T19:16:41.748Z,5.15
2017-12-24T19:19:09.288Z,4.37
2017-12-24T19:21:37.587Z,3.97
2017-12-24T19:24:05.132Z,5.30
2017-12-24T19:26:32.668Z,3.92
2017-12-24T19:29:01.000Z,4.90
2017-12-24T19:31:28.521Z,3.75
2017-12-24T19:33:56.065Z,3.75
2017-12-24T19:36:24.377Z,3.50
2017-12-24T19:38:51.938Z,6.10
2017-12-24T19:41:19.477Z,3.58
2017-12-24T19:43:47.781Z,4.07
2017-12-24T19:46:15.328Z,3.83
2017-12-24T19:48:42.901Z,3.80
2017-12-24T19:51:10.430Z,3.00
2017-12-24T19:53:38.745Z,4.03
2017-12-24T19:56:06.329Z,3.42
2017-12-24T19:58:33.858Z,2.85
2017-12-24T20:01:01.404Z,4.00
2017-12-24T20:03:28.928Z,3.95
2017-12-24T20:05:56.460Z,3.80
2017-12-24T20:08:23.980Z,3.70
2017-12-24T20:10:51.527Z,3.55
2017-12-24T20:13:19.049Z,3.90
2017-12-24T20:15:46.601Z,3.62
2017-12-24T20:18:14.133Z,3.05
2017-12-24T20:20:42.500Z,2.87
2017-12-24T20:23:10.038Z,2.70
2017-12-24T20:25:37.578Z,3.70
2017-12-24T20:28:05.119Z,3.05
2017-12-24T20:30:32.655Z,3.20
2017-12-24T20:33:00.965Z,4.25
2017-12-24T20:35:28.496Z,3.03
2017-12-24T20:37:56.810Z,3.22
2017-12-24T20:40:24.352Z,3.33
2017-12-24T20:42:51.880Z,3.17
2017-12-24T20:45:20.198Z,3.03
2017-12-24T20:47:47.738Z,3.95
2017-12-24T20:50:15.316Z,3.40
2017-12-24T20:52:42.849Z,3.20
2017-12-24T20:55:10.396Z,3.62
2017-12-24T20:57:37.942Z,3.40
2017-12-24T21:00:05.493Z,4.07
2017-12-24T21:02:33.813Z,4.40
2017-12-24T21:05:01.463Z,3.87
2017-12-24T21:07:29.059Z,3.85
2017-12-24T21:09:56.555Z,4.90
2017-12-24T21:12:24.889Z,3.97
2017-12-24T21:14:52.414Z,4.37
2017-12-24T21:17:19.933Z,4.82
2017-12-24T21:19:47.514Z,3.67
2017-12-24T21:22:15.084Z,3.40
2017-12-24T21:24:42.653Z,4.18
2017-12-24T21:27:10.175Z,3.78
2017-12-24T21:29:38.501Z,4.10
2017-12-24T21:32:06.044Z,4.00
2017-12-24T21:34:33.593Z,3.10
2017-12-24T21:37:01.125Z,4.35
2017-12-24T21:39:28.678Z,3.25
2017-12-24T21:41:56.204Z,3.55
2017-12-24T21:44:23.757Z,3.70
2017-12-24T21:46:51.324Z,3.62
2017-12-24T21:49:18.856Z,4.00
2017-12-24T21:51:46.394Z,3.95
2017-12-24T21:54:14.809Z,4.55
2017-12-24T21:56:42.357Z,3.85
2017-12-24T21:59:09.896Z,4.07
2017-12-24T22:01:38.221Z,4.47
2017-12-24T22:04:05.755Z,3.10
2017-12-24T22:06:33.292Z,3.70
2017-12-24T22:09:01.618Z,3.92
2017-12-24T22:11:29.159Z,3.75
2017-12-24T22:13:56.712Z,4.95
2017-12-24T22:16:24.357Z,4.20
2017-12-24T22:18:52.668Z,4.65
2017-12-24T22:21:20.184Z,4.80
2017-12-24T22:23:48.485Z,3.72
2017-12-24T22:26:16.014Z,7.20
2017-12-24T22:28:44.384Z,4.85
2017-12-24T22:31:11.925Z,4.40
2017-12-24T22:33:39.477Z,5.05
2017-12-24T22:36:07.079Z,5.75
2017-12-24T22:38:35.394Z,4.57
2017-12-24T22:41:03.055Z,4.47
2017-12-24T22:43:30.599Z,5.40
2017-12-24T22:45:58.128Z,4.43
2017-12-24T22:48:25.682Z,5.35
2017-12-24T22:50:53.211Z,5.10
2017-12-24T22:53:20.858Z,4.57
2017-12-24T22:55:48.377Z,4.80
2017-12-24T22:58:16.685Z,5.82
2017-12-24T23:00:44.229Z,6.85
2017-12-24T23:03:12.560Z,4.97
2017-12-24T23:05:40.087Z,5.00
2017-12-24T23:08:07.629Z,4.57
2017-12-24T23:10:35.153Z,5.43
2017-12-24T23:13:03.560Z,5.40
2017-12-24T23:15:31.852Z,5.35
2017-12-24T23:17:59.412Z,5.22
2017-12-24T23:20:26.941Z,4.93
2017-12-24T23:22:55.294Z,5.32
2017-12-24T23:25:22.851Z,4.40
2017-12-24T23:27:50.409Z,4.95
2017-12-24T23:30:17.937Z,4.80
2017-12-24T23:32:45.608Z,5.40
2017-12-24T23:35:13.192Z,5.53
2017-12-24T23:37:40.712Z,5.82
2017-12-24T23:40:08.256Z,6.25
2017-12-24T23:42:36.543Z,7.07
2017-12-24T23:45:04.088Z,7.40
2017-12-24T23:47:32.389Z,6.25
2017-12-24T23:49:59.948Z,5.65
2017-12-24T23:52:27.473Z,5.35
2017-12-24T23:54:55.900Z,9.52
2017-12-24T23:57:23.418Z,7.15
2017-12-24T23:59:51.756Z,5.07
